Time;durP1;ratioP1;P1;durP2;ratioP2;P2;SDS_P1;SDS_P2;PMS_P1;PMS_P2;Temp;Humidity;BMP_temperature;BMP_pressure;BME280_temperature;BME280_humidity;BME280_pressure;Samples;Min_cycle;Max_cycle;Signal;HPM_P1;HPM_P2
2022/08/25 00:02:18;;;;;;;8.77;7.88;;;;;;;21.31;82.22;101563.44;5046215;28;20492;-73
2022/08/25 00:04:44;;;;;;;8.52;7.72;;;;;;;21.31;83.02;101565.25;5036961;28;20112;-73
2022/08/25 00:07:09;;;;;;;7.80;7.10;;;;;;;21.30;82.98;101558.25;5036541;28;20025;-73
2022/08/25 00:09:35;;;;;;;8.32;7.35;;;;;;;21.22;83.55;101574.56;5036359;28;20398;-73
2022/08/25 00:12:01;;;;;;;8.00;7.20;;;;;;;21.19;83.44;101565.03;5051922;28;20033;-73
2022/08/25 00:14:31;;;;;;;10.50;8.18;;;;;;;21.18;83.60;101576.53;5051065;28;20021;-73
2022/08/25 00:16:56;;;;;;;9.10;7.40;;;;;;;21.19;83.78;101570.31;5047379;28;20025;-73
2022/08/25 00:19:25;;;;;;;11.18;7.80;;;;;;;21.09;83.95;101566.47;5042360;28;20029;-73
2022/08/25 00:21:51;;;;;;;7.78;7.07;;;;;;;21.06;84.49;101566.66;5051349;28;20021;-73
2022/08/25 00:24:18;;;;;;;9.98;7.70;;;;;;;20.97;84.45;101560.06;5051341;28;20032;-73
2022/08/25 00:26:46;;;;;;;9.43;8.52;;;;;;;20.99;84.45;101562.63;5050383;28;20029;-73
2022/08/25 00:29:11;;;;;;;9.57;8.65;;;;;;;20.90;84.22;101556.03;5038226;28;20033;-73
2022/08/25 00:31:38;;;;;;;11.25;8.23;;;;;;;20.93;84.41;101568.28;5046025;28;20546;-73
2022/08/25 00:34:08;;;;;;;14.18;8.80;;;;;;;20.86;85.04;101566.88;5037228;28;20096;-73
2022/08/25 00:36:34;;;;;;;10.73;8.20;;;;;;;20.87;85.22;101568.63;5051023;28;20056;-73
2022/08/25 00:38:59;;;;;;;10.57;8.18;;;;;;;20.77;85.17;101553.22;5035508;28;20480;-73
2022/08/25 00:41:25;;;;;;;11.63;8.70;;;;;;;20.72;85.50;101563.19;5051396;28;20419;-73
2022/08/25 00:43:58;;;;;;;12.50;8.32;;;;;;;20.69;86.04;101573.97;5036329;28;20121;-73
2022/08/25 00:46:30;;;;;;;9.05;8.23;;;;;;;20.66;85.76;101570.63;5050935;28;20132;-73
2022/08/25 00:49:11;;;;;;;10.80;8.82;;;;;;;20.59;86.15;101564.81;5049847;28;20374;-73
2022/08/25 00:51:49;;;;;;;10.98;9.55;;;;;;;20.55;86.13;101564.13;5025930;28;20052;-73
2022/08/25 00:54:21;;;;;;;10.10;9.10;;;;;;;20.47;86.97;101568.06;5047342;28;20053;-73
2022/08/25 00:56:48;;;;;;;10.55;9.15;;;;;;;20.48;86.99;101562.72;5051105;28;20437;-73
2022/08/25 00:59:17;;;;;;;9.77;8.77;;;;;;;20.40;87.04;101553.44;5048124;28;20550;-73
2022/08/25 01:01:42;;;;;;;11.02;9.73;;;;;;;20.35;87.12;101564.31;5050763;28;20021;-73
2022/08/25 01:04:07;;;;;;;11.90;9.15;;;;;;;20.35;87.39;101573.09;5045367;28;20124;-73
2022/08/25 01:06:38;;;;;;;11.18;10.00;;;;;;;20.34;87.29;101574.03;5051106;28;20036;-73
2022/08/25 01:09:06;;;;;;;10.10;9.10;;;;;;;20.30;87.00;101563.69;5045091;28;20025;-73
2022/08/25 01:11:31;;;;;;;11.20;10.02;;;;;;;20.27;87.05;101556.78;5042372;28;20033;-73
2022/08/25 01:13:57;;;;;;;11.88;10.18;;;;;;;20.29;87.69;101557.53;5036331;28;20026;-73
2022/08/25 01:16:23;;;;;;;10.82;9.70;;;;;;;20.27;86.97;101564.72;5034815;28;20080;-73
2022/08/25 01:18:52;;;;;;;12.98;10.32;;;;;;;20.30;86.71;101559.22;5033630;28;20036;-73
2022/08/25 01:21:20;;;;;;;12.18;10.65;;;;;;;20.28;86.43;101561.13;5032323;28;20029;-73
2022/08/25 01:23:48;;;;;;;10.30;9.38;;;;;;;20.22;86.66;101550.84;5034240;28;20025;-73
2022/08/25 01:26:18;;;;;;;10.50;9.45;;;;;;;20.27;86.49;101553.25;5034399;28;20027;-73
2022/08/25 01:31:31;;;;;;;11.35;10.25;;;;;;;20.30;86.06;101559.22;5034752;28;20091;-73
2022/08/25 01:33:57;;;;;;;13.77;9.95;;;;;;;20.33;86.52;101563.50;5040798;28;20013;-73
2022/08/25 01:36:23;;;;;;;10.82;9.75;;;;;;;20.34;85.96;101554.66;5034831;28;20109;-73
2022/08/25 01:38:49;;;;;;;10.77;9.68;;;;;;;20.33;85.95;101555.56;5033632;28;20029;-73
2022/08/25 01:41:20;;;;;;;11.50;9.95;;;;;;;20.35;85.77;101553.72;5037801;28;20031;-73
2022/08/25 01:43:46;;;;;;;10.88;9.73;;;;;;;20.35;85.40;101561.66;5033398;28;20079;-73
2022/08/25 01:46:11;;;;;;;10.65;9.65;;;;;;;20.35;85.37;101559.00;5033931;28;20069;-73
2022/08/25 01:48:37;;;;;;;10.88;9.88;;;;;;;20.35;85.91;101562.50;5034101;28;20029;-73
2022/08/25 01:51:03;;;;;;;11.02;9.98;;;;;;;20.30;84.95;101559.22;5032976;28;20022;-73
2022/08/25 01:53:30;;;;;;;11.43;10.30;;;;;;;20.30;85.58;101558.38;5033173;28;20089;-73
2022/08/25 01:56:04;;;;;;;11.75;10.55;;;;;;;20.23;84.76;101555.19;5034718;28;20028;-73
2022/08/25 01:58:36;;;;;;;11.80;10.60;;;;;;;20.20;84.64;101552.72;5033694;28;20025;-72
2022/08/25 02:01:06;;;;;;;10.93;9.90;;;;;;;20.14;84.45;101560.13;5034425;28;20128;-73
2022/08/25 02:03:32;;;;;;;13.07;10.95;;;;;;;20.13;85.04;101553.97;5033321;28;20448;-73
2022/08/25 02:05:59;;;;;;;11.70;10.25;;;;;;;20.09;84.56;101557.72;5034022;28;20466;-73
2022/08/25 02:08:25;;;;;;;11.90;10.80;;;;;;;20.10;84.16;101551.47;5032298;28;20060;-73
2022/08/25 02:10:52;;;;;;;17.90;11.00;;;;;;;20.04;84.42;101555.28;5034842;28;20116;-73
2022/08/25 02:13:19;;;;;;;10.98;9.98;;;;;;;20.02;84.32;101559.84;5033668;28;20537;-73
2022/08/25 02:15:50;;;;;;;12.27;10.40;;;;;;;20.00;84.95;101559.03;5033924;28;20029;-73
2022/08/25 02:18:16;;;;;;;11.18;9.80;;;;;;;19.98;84.17;101546.81;5032606;28;20033;-73
2022/08/25 02:20:41;;;;;;;12.07;10.63;;;;;;;19.93;84.10;101556.81;5040054;28;20384;-73
2022/08/25 02:23:07;;;;;;;15.18;10.48;;;;;;;19.91;84.39;101554.22;5043636;28;20037;-73
2022/08/25 02:25:32;;;;;;;13.07;10.60;;;;;;;19.88;84.41;101557.91;5034327;28;20097;-73
2022/08/25 02:27:58;;;;;;;11.07;9.98;;;;;;;19.84;84.48;101555.47;5032959;28;20484;-74
2022/08/25 02:30:24;;;;;;;11.23;10.07;;;;;;;19.78;84.25;101548.72;5033613;28;20488;-73
2022/08/25 02:32:50;;;;;;;13.15;10.30;;;;;;;19.72;83.51;101543.75;5033578;28;20512;-73
2022/08/25 02:35:16;;;;;;;10.88;9.80;;;;;;;19.77;84.21;101549.63;5032832;28;20025;-73
2022/08/25 02:37:41;;;;;;;16.48;10.30;;;;;;;19.73;84.29;101545.44;5034059;28;20032;-73
2022/08/25 02:40:07;;;;;;;12.93;9.27;;;;;;;19.72;84.74;101546.38;5032875;28;20036;-73
2022/08/25 02:42:32;;;;;;;13.00;9.73;;;;;;;19.67;84.04;101543.09;5032084;28;20167;-73
2022/08/25 02:44:58;;;;;;;11.05;9.30;;;;;;;19.70;83.93;101550.88;5033988;28;20128;-73
2022/08/25 02:47:24;;;;;;;10.43;9.23;;;;;;;19.64;83.51;101546.75;5033292;28;20145;-73
2022/08/25 02:49:49;;;;;;;11.77;9.57;;;;;;;19.54;82.85;101536.69;5031014;28;20026;-73
2022/08/25 02:52:15;;;;;;;10.80;9.50;;;;;;;19.57;82.67;101547.13;5032725;28;20033;-73
2022/08/25 02:54:40;;;;;;;15.13;9.85;;;;;;;19.59;83.45;101545.25;5033789;28;20507;-73
2022/08/25 02:57:06;;;;;;;12.82;9.85;;;;;;;19.55;81.75;101539.25;5032806;28;20033;-73
2022/08/25 02:59:32;;;;;;;10.68;9.35;;;;;;;19.53;81.79;101529.69;5032692;28;20029;-73
2022/08/25 03:01:57;;;;;;;11.38;9.73;;;;;;;19.47;81.28;101535.28;5031087;28;20116;-73
2022/08/25 03:04:22;;;;;;;12.98;8.88;;;;;;;19.45;80.50;101535.34;5032249;28;20037;-73
2022/08/25 03:06:48;;;;;;;10.02;8.90;;;;;;;19.42;81.67;101524.91;5033455;28;20049;-73
2022/08/25 03:09:13;;;;;;;12.90;9.70;;;;;;;19.38;80.64;101532.16;5032401;28;20087;-73
2022/08/25 03:11:39;;;;;;;13.10;9.38;;;;;;;19.37;80.90;101529.59;5031424;28;20025;-73
2022/08/25 03:14:06;;;;;;;12.05;9.10;;;;;;;19.31;81.25;101527.25;5033113;28;20028;-73
2022/08/25 03:16:32;;;;;;;10.30;9.30;;;;;;;19.24;81.35;101512.63;5033200;28;20029;-73
2022/08/25 03:18:58;;;;;;;11.60;9.55;;;;;;;19.26;81.50;101521.31;5032587;28;20028;-73
2022/08/25 03:21:24;;;;;;;11.60;9.18;;;;;;;19.16;80.88;101519.16;5031858;28;20033;-73
2022/08/25 03:23:49;;;;;;;10.30;8.90;;;;;;;19.14;80.60;101518.38;5032646;28;20029;-73
2022/08/25 03:28:59;;;;;;;10.52;9.25;;;;;;;19.04;80.53;101514.47;5020111;28;20495;-73
2022/08/25 03:31:26;;;;;;;10.60;8.77;;;;;;;19.06;80.58;101509.09;5031572;28;20029;-73
2022/08/25 03:33:52;;;;;;;12.70;9.15;;;;;;;19.05;80.55;101504.72;5032528;28;20049;-73
2022/08/25 03:36:18;;;;;;;9.55;8.55;;;;;;;19.04;80.43;101517.09;5031499;28;20021;-73
2022/08/25 03:38:44;;;;;;;12.30;9.07;;;;;;;19.02;79.76;101513.66;5031623;28;20026;-73
2022/08/25 03:41:13;;;;;;;11.52;8.90;;;;;;;18.99;79.49;101512.97;5032331;28;20107;-73
2022/08/25 03:43:39;;;;;;;13.98;8.90;;;;;;;18.95;79.67;101518.38;5032481;28;20026;-73
2022/08/25 03:46:04;;;;;;;9.80;8.80;;;;;;;18.95;79.13;101514.88;5030296;28;20045;-73
2022/08/25 03:48:30;;;;;;;12.65;8.40;;;;;;;18.93;80.61;101501.78;5032409;28;20116;-72
2022/08/25 03:50:55;;;;;;;9.68;8.60;;;;;;;18.88;80.22;101505.56;5019125;28;20020;-73
2022/08/25 03:53:20;;;;;;;13.77;8.73;;;;;;;18.89;80.07;101501.97;5029719;28;20448;-73
2022/08/25 03:55:46;;;;;;;11.05;8.90;;;;;;;18.90;80.09;101504.56;5035585;28;20055;-73
2022/08/25 03:58:12;;;;;;;10.93;9.10;;;;;;;18.88;79.65;101500.25;5041139;28;20030;-73
2022/08/25 04:00:38;;;;;;;11.50;8.73;;;;;;;18.84;79.69;101496.91;5031641;28;20370;-73
2022/08/25 04:03:03;;;;;;;12.35;8.57;;;;;;;18.86;80.14;101492.41;5032139;28;20018;-73
2022/08/25 04:05:28;;;;;;;11.70;8.40;;;;;;;18.80;79.74;101491.84;5031836;28;20029;-73
2022/08/25 04:07:54;;;;;;;21.27;8.60;;;;;;;18.81;80.35;101491.78;5031761;28;20010;-73
2022/08/25 04:10:20;;;;;;;15.00;8.98;;;;;;;18.75;79.93;101486.78;5031987;28;20699;-73
2022/08/25 04:12:46;;;;;;;10.27;9.25;;;;;;;18.75;79.16;101485.94;5032339;28;20025;-73
2022/08/25 04:15:11;;;;;;;11.18;9.38;;;;;;;18.76;79.03;101488.47;5029575;28;20370;-73
2022/08/25 04:17:38;;;;;;;9.98;8.73;;;;;;;18.81;79.24;101501.50;5031902;28;20083;-73
2022/08/25 04:20:05;;;;;;;12.30;9.10;;;;;;;18.83;78.20;101489.06;5031939;28;20366;-73
2022/08/25 04:22:31;;;;;;;10.23;9.13;;;;;;;18.79;76.65;101496.25;5031058;28;20037;-73
2022/08/25 04:24:57;;;;;;;11.02;8.48;;;;;;;18.83;77.49;101497.81;5031855;28;20025;-73
2022/08/25 04:27:23;;;;;;;13.65;8.57;;;;;;;18.85;78.00;101497.78;5030656;28;20392;-73
2022/08/25 04:29:48;;;;;;;16.85;9.02;;;;;;;18.84;76.34;101496.06;5031946;28;20108;-72
2022/08/25 04:32:13;;;;;;;14.32;8.68;;;;;;;18.81;75.44;101489.13;5031813;28;20033;-73
2022/08/25 04:34:39;;;;;;;11.30;8.63;;;;;;;18.79;76.24;101488.34;5030955;28;20029;-72
2022/08/25 04:37:06;;;;;;;14.68;9.88;;;;;;;18.78;76.92;101476.06;5030248;28;20017;-73
2022/08/25 04:39:32;;;;;;;13.35;9.45;;;;;;;18.75;76.70;101476.22;5031838;28;20029;-73
2022/08/25 04:41:59;;;;;;;13.20;8.77;;;;;;;18.78;77.33;101478.72;5031074;28;20025;-73
2022/08/25 04:44:24;;;;;;;13.25;9.52;;;;;;;18.73;77.03;101464.84;5031000;28;20068;-73
2022/08/25 04:46:49;;;;;;;14.05;8.80;;;;;;;18.80;75.51;101470.69;5030224;28;20076;-73
2022/08/25 04:49:15;;;;;;;13.27;9.05;;;;;;;18.78;74.16;101468.16;5030942;28;20032;-73
2022/08/25 04:51:40;;;;;;;13.82;9.35;;;;;;;18.85;73.94;101468.72;5030988;28;20432;-73
2022/08/25 04:54:09;;;;;;;11.77;8.63;;;;;;;18.85;73.99;101464.28;5031401;28;20029;-73
2022/08/25 04:56:36;;;;;;;10.68;8.57;;;;;;;18.82;73.63;101458.28;5030046;28;20136;-72
2022/08/25 04:59:04;;;;;;;14.75;8.40;;;;;;;18.91;72.37;101474.56;5031126;28;20108;-73
2022/08/25 05:01:30;;;;;;;16.75;9.05;;;;;;;18.95;74.97;101469.97;5031346;28;20025;-73
2022/08/25 05:03:58;;;;;;;13.00;8.57;;;;;;;18.97;74.26;101473.41;5030275;28;20027;-73
2022/08/25 05:06:25;;;;;;;11.48;7.82;;;;;;;19.02;74.62;101476.66;5030320;28;20057;-73
2022/08/25 05:08:50;;;;;;;12.48;7.65;;;;;;;19.03;72.92;101488.09;5031748;28;20029;-73
2022/08/25 05:11:18;;;;;;;10.27;8.25;;;;;;;19.03;71.25;101482.81;5029428;28;20037;-73
2022/08/25 05:13:45;;;;;;;13.68;8.38;;;;;;;19.05;74.40;101480.94;5031690;28;20037;-73
2022/08/25 05:16:10;;;;;;;10.18;7.97;;;;;;;19.07;73.46;101479.09;5029582;28;20416;-73
2022/08/25 05:18:37;;;;;;;11.82;7.63;;;;;;;19.08;74.39;101486.94;5030762;28;20041;-73
2022/08/25 05:21:08;;;;;;;13.32;7.95;;;;;;;19.10;72.27;101494.81;5031211;28;20365;-73
2022/08/25 05:23:33;;;;;;;9.60;7.90;;;;;;;19.10;72.29;101500.94;5030483;28;20051;-73
2022/08/25 05:26:07;;;;;;;10.25;7.53;;;;;;;19.21;74.02;101508.34;5030744;28;20461;-73
2022/08/25 05:28:32;;;;;;;12.07;7.47;;;;;;;19.31;72.18;101501.66;5030940;28;20021;-73
2022/08/25 05:31:00;;;;;;;16.40;7.72;;;;;;;19.45;72.68;101505.41;5029661;28;20024;-73
2022/08/25 05:33:26;;;;;;;13.73;7.47;;;;;;;19.64;72.88;101504.44;5028328;28;20026;-73
2022/08/25 05:35:51;;;;;;;15.32;7.18;;;;;;;19.76;72.34;101497.66;5030728;28;20457;-73
2022/08/25 05:38:17;;;;;;;8.77;6.40;;;;;;;19.97;72.06;101500.13;5030140;28;20048;-73
2022/08/25 05:40:42;;;;;;;11.32;6.90;;;;;;;20.01;68.88;101494.63;5031282;28;20014;-73
2022/08/25 05:43:07;;;;;;;15.52;7.63;;;;;;;20.08;68.19;101508.38;5031221;28;20501;-73
2022/08/25 05:45:33;;;;;;;8.75;6.57;;;;;;;20.16;68.22;101505.31;5029533;28;20168;-73
2022/08/25 05:47:58;;;;;;;9.38;6.75;;;;;;;20.18;67.94;101504.31;5031362;28;20083;-73
2022/08/25 05:50:23;;;;;;;11.00;7.00;;;;;;;20.24;66.56;101506.63;5028716;28;20037;-73
2022/08/25 05:52:48;;;;;;;12.65;7.00;;;;;;;20.24;66.19;101509.28;5029968;28;20030;-74
2022/08/25 05:55:14;;;;;;;11.13;6.55;;;;;;;20.24;65.96;101503.97;5030231;28;20037;-77
2022/08/25 05:57:39;;;;;;;15.30;6.72;;;;;;;20.29;65.96;101515.16;5033545;28;20017;-76
2022/08/25 06:00:06;;;;;;;11.80;6.25;;;;;;;20.32;65.59;101522.94;5028902;28;20477;-76
2022/08/25 06:02:40;;;;;;;9.23;6.38;;;;;;;20.33;64.86;101516.69;5033822;28;20033;-76
2022/08/25 06:05:13;;;;;;;13.27;6.45;;;;;;;20.43;64.97;101525.00;5033241;28;20102;-76
2022/08/25 06:07:39;;;;;;;14.65;6.50;;;;;;;20.51;65.61;101519.34;5034014;28;20091;-76
2022/08/25 06:10:07;;;;;;;8.35;6.10;;;;;;;20.57;64.74;101521.66;5034301;28;20466;-76
2022/08/25 06:12:34;;;;;;;14.80;6.55;;;;;;;20.64;64.40;101523.03;5033549;28;20038;-76
2022/08/25 06:15:00;;;;;;;13.52;6.40;;;;;;;20.69;63.86;101515.66;5033461;28;20030;-76
2022/08/25 06:17:25;;;;;;;14.23;6.43;;;;;;;20.75;63.27;101523.28;5031537;28;20021;-76
2022/08/25 06:19:52;;;;;;;11.35;6.25;;;;;;;20.72;65.25;101507.56;5032987;28;20451;-76
2022/08/25 06:22:17;;;;;;;10.60;6.00;;;;;;;20.83;63.49;101514.06;5033147;28;20470;-73
2022/08/25 06:24:43;;;;;;;11.77;6.00;;;;;;;20.83;63.05;101493.72;5033613;28;20038;-73
2022/08/25 06:27:08;;;;;;;14.52;6.13;;;;;;;20.96;61.60;101510.66;5033435;28;20270;-73
2022/08/25 06:29:33;;;;;;;10.95;6.03;;;;;;;21.05;60.37;101510.09;5034170;28;20029;-73
2022/08/25 06:31:59;;;;;;;13.95;5.70;;;;;;;21.12;59.85;101505.31;5034240;28;20064;-73
2022/08/25 06:34:24;;;;;;;15.02;6.03;;;;;;;21.20;60.45;101516.34;5033106;28;20037;-74
2022/08/25 06:36:49;;;;;;;8.10;5.43;;;;;;;21.27;60.54;101515.03;5035658;28;20021;-73
2022/08/25 06:39:15;;;;;;;9.23;5.80;;;;;;;21.34;59.53;101520.84;5033759;28;20021;-73
2022/08/25 06:41:41;;;;;;;9.73;5.97;;;;;;;21.42;59.05;101509.84;5033231;28;20026;-74
2022/08/25 06:44:06;;;;;;;8.75;5.70;;;;;;;21.47;59.09;101516.56;5032316;28;20028;-75
2022/08/25 06:46:31;;;;;;;8.98;6.10;;;;;;;21.53;58.39;101510.06;5033132;28;20079;-74
2022/08/25 06:48:57;;;;;;;16.40;5.88;;;;;;;21.63;58.59;101511.22;5033002;28;20119;-74
2022/08/25 06:51:25;;;;;;;9.15;5.70;;;;;;;21.68;58.45;101509.16;5037128;28;20030;-74
2022/08/25 06:53:51;;;;;;;12.93;5.85;;;;;;;21.76;56.67;101510.50;5036656;28;20078;-74
2022/08/25 06:56:18;;;;;;;12.35;5.70;;;;;;;21.88;56.84;101515.06;5032504;28;20477;-74
2022/08/25 06:58:44;;;;;;;14.50;6.20;;;;;;;21.95;57.33;101509.28;5036821;28;20044;-74
2022/08/25 07:01:19;;;;;;;12.10;5.35;;;;;;;22.05;57.28;101511.38;5033550;28;20021;-74
2022/08/25 07:03:44;;;;;;;12.23;6.03;;;;;;;22.08;57.96;101503.25;5033101;28;20068;-74
2022/08/25 07:06:09;;;;;;;16.77;5.97;;;;;;;22.11;56.40;101495.09;5033201;28;20111;-74
2022/08/25 07:08:35;;;;;;;8.55;5.85;;;;;;;22.11;57.01;101495.94;5032361;28;20513;-74
2022/08/25 07:11:06;;;;;;;15.57;6.70;;;;;;;22.18;57.05;101491.97;5032868;28;20361;-74
2022/08/25 07:13:31;;;;;;;10.30;5.70;;;;;;;22.17;57.04;101484.97;5033320;28;20025;-74
2022/08/25 07:15:56;;;;;;;10.68;6.10;;;;;;;22.25;55.55;101491.59;5032773;28;20440;-74
2022/08/25 07:18:22;;;;;;;10.70;6.00;;;;;;;22.23;55.93;101489.03;5032799;28;20420;-74
2022/08/25 07:20:48;;;;;;;9.98;6.00;;;;;;;22.26;55.34;101482.69;5033379;28;20057;-74
2022/08/25 07:23:13;;;;;;;14.70;6.43;;;;;;;22.38;55.33;101484.56;5031960;28;20087;-74
2022/08/25 07:25:38;;;;;;;9.07;6.20;;;;;;;22.52;55.51;101491.66;5033245;28;20105;-74
2022/08/25 07:28:04;;;;;;;14.95;6.20;;;;;;;22.62;55.19;101493.63;5032705;28;20088;-74
2022/08/25 07:30:30;;;;;;;10.43;5.47;;;;;;;22.70;55.78;101497.63;5032227;28;20029;-74
2022/08/25 07:32:55;;;;;;;7.60;5.53;;;;;;;22.75;53.88;101485.72;5033213;28;20083;-74
2022/08/25 07:35:23;;;;;;;10.65;5.43;;;;;;;22.80;53.50;101483.63;5032433;28;20099;-74
2022/08/25 07:37:51;;;;;;;17.08;5.70;;;;;;;22.88;53.65;101491.09;5032319;28;20148;-74
2022/08/25 07:40:21;;;;;;;9.15;5.40;;;;;;;23.01;52.68;101486.72;5032462;28;20036;-74
2022/08/25 07:42:48;;;;;;;10.25;5.32;;;;;;;23.13;51.92;101483.25;5033019;28;20465;-74
2022/08/25 07:45:14;;;;;;;10.15;5.30;;;;;;;23.26;53.05;101485.13;5031588;28;20069;-74
2022/08/25 07:47:40;;;;;;;7.25;5.10;;;;;;;23.29;53.63;101479.59;5032619;28;20462;-74
2022/08/25 07:50:08;;;;;;;10.32;5.18;;;;;;;23.40;52.63;101493.00;5032343;28;20041;-74
2022/08/25 07:52:33;;;;;;;11.27;4.60;;;;;;;23.49;52.50;101472.94;5031455;28;20495;-74
2022/08/25 07:54:58;;;;;;;8.20;4.97;;;;;;;23.66;52.64;101482.41;5032868;28;20100;-74
2022/08/25 07:57:25;;;;;;;9.75;4.65;;;;;;;23.71;51.74;101480.34;5031932;28;20053;-74
2022/08/25 07:59:50;;;;;;;6.60;4.40;;;;;;;23.84;51.21;101478.53;5031570;28;20033;-76
2022/08/25 08:02:16;;;;;;;9.50;5.32;;;;;;;23.96;50.75;101487.47;5031461;28;20515;-76
2022/08/25 08:04:42;;;;;;;10.15;5.00;;;;;;;24.07;50.50;101484.91;5032224;28;20026;-76
2022/08/25 08:07:07;;;;;;;8.45;4.25;;;;;;;24.14;51.32;101474.69;5033271;28;20025;-76
2022/08/25 08:09:32;;;;;;;10.60;4.85;;;;;;;24.29;49.52;101486.91;5032119;28;20026;-76
2022/08/25 08:11:58;;;;;;;6.97;4.47;;;;;;;24.31;50.83;101479.66;5042457;28;20044;-76
2022/08/25 08:14:23;;;;;;;10.05;4.43;;;;;;;24.36;50.81;101471.31;5033217;28;20488;-76
2022/08/25 08:16:49;;;;;;;8.52;4.50;;;;;;;24.46;49.41;101478.59;5031854;28;20037;-77
2022/08/25 08:19:15;;;;;;;7.72;4.40;;;;;;;24.51;48.70;101481.78;5028467;28;20493;-76
2022/08/25 08:21:40;;;;;;;8.65;4.30;;;;;;;24.63;48.97;101474.72;5031598;28;20046;-76
2022/08/25 08:24:06;;;;;;;9.82;4.47;;;;;;;24.75;49.30;101475.59;5031407;28;20041;-76
2022/08/25 08:26:31;;;;;;;6.13;4.70;;;;;;;24.85;49.21;101476.66;5031119;28;20555;-76
2022/08/25 08:28:57;;;;;;;6.75;4.28;;;;;;;24.96;46.87;101482.03;5031642;28;20036;-77
2022/08/25 08:31:25;;;;;;;9.57;4.47;;;;;;;25.16;48.05;101483.25;5032746;28;20017;-77
2022/08/25 08:33:52;;;;;;;6.78;4.30;;;;;;;25.26;48.96;101474.56;5035133;28;20136;-77
2022/08/25 08:36:17;;;;;;;7.40;4.35;;;;;;;25.38;47.78;101476.31;5039503;28;20025;-75
2022/08/25 08:38:44;;;;;;;7.45;4.13;;;;;;;25.44;47.48;101470.47;5031806;28;20014;-75
2022/08/25 08:44:32;;;;;;;6.95;4.53;;;;;;;25.65;45.89;101462.66;5038536;28;20039;-76
2022/08/25 08:47:13;;;;;;;11.57;4.05;;;;;;;25.77;47.81;101466.19;5034601;28;20478;-76
2022/08/25 08:50:01;;;;;;;4.72;3.83;;;;;;;25.78;47.77;101458.06;5030373;28;20042;-77
2022/08/25 08:52:58;;;;;;;9.95;3.92;;;;;;;25.94;46.23;101463.09;5030501;28;20017;-76
2022/08/25 08:55:34;;;;;;;11.10;4.07;;;;;;;26.05;46.28;101464.91;5007964;28;21587;-76
2022/08/25 08:58:06;;;;;;;12.43;4.47;;;;;;;26.21;45.06;101453.84;5031629;28;20028;-76
2022/08/25 09:00:39;;;;;;;6.38;4.20;;;;;;;26.37;45.38;101459.69;5031562;28;20022;-76
2022/08/25 09:03:15;;;;;;;6.72;3.92;;;;;;;26.56;44.43;101465.25;5027015;28;20107;-76
2022/08/25 09:05:49;;;;;;;8.43;3.97;;;;;;;26.69;44.79;101467.78;5024912;28;20346;-76
2022/08/25 09:08:16;;;;;;;6.97;4.22;;;;;;;26.90;43.58;101456.28;5031169;28;20080;-76
2022/08/25 09:11:09;;;;;;;8.95;4.65;;;;;;;27.08;43.87;101465.47;5030412;28;20477;-76
2022/08/25 09:13:47;;;;;;;11.10;3.97;;;;;;;27.27;42.18;101463.00;5031350;28;20060;-76
2022/08/25 09:16:53;;;;;;;5.38;3.80;;;;;;;27.38;42.69;101455.88;5029289;28;20037;-76
2022/08/25 09:19:49;;;;;;;8.23;3.90;;;;;;;27.61;43.01;101468.16;5029711;28;20202;-76
2022/08/25 09:22:42;;;;;;;4.93;3.60;;;;;;;27.74;42.01;101462.59;5028915;28;20037;-76
2022/08/25 09:25:20;;;;;;;5.90;3.78;;;;;;;27.94;40.12;101463.56;5032343;28;20044;-76
2022/08/25 09:28:26;;;;;;;11.77;4.00;;;;;;;28.09;41.47;101461.34;5030978;28;20064;-76
2022/08/25 09:31:20;;;;;;;7.45;3.63;;;;;;;28.23;41.18;101453.81;5019934;28;20029;-76
2022/08/25 09:33:45;;;;;;;6.30;3.70;;;;;;;28.52;40.31;101462.97;5033937;28;20434;-76
2022/08/25 09:36:11;;;;;;;12.18;4.75;;;;;;;28.61;39.89;101462.97;5033794;28;20069;-76
2022/08/25 09:38:37;;;;;;;9.25;3.83;;;;;;;28.67;40.95;101459.72;5034393;28;20536;-76
2022/08/25 09:41:03;;;;;;;4.97;3.53;;;;;;;28.77;39.74;101456.19;5033743;28;20397;-76
2022/08/25 09:43:35;;;;;;;10.05;4.20;;;;;;;28.94;40.28;101447.47;5033381;28;20029;-76
2022/08/25 09:46:22;;;;;;;6.05;3.75;;;;;;;28.98;39.53;101445.34;5034278;28;20132;-77
2022/08/25 09:48:54;;;;;;;8.85;3.83;;;;;;;29.08;38.58;101447.06;5033941;28;20030;-77
2022/08/25 09:51:24;;;;;;;7.55;3.80;;;;;;;29.18;39.53;101444.38;5033707;28;20041;-77
2022/08/25 09:54:11;;;;;;;5.10;3.65;;;;;;;29.43;39.91;101442.94;5032357;28;20022;-77
2022/08/25 09:56:48;;;;;;;5.53;3.50;;;;;;;29.58;36.64;101427.19;5034786;28;20033;-76
2022/08/25 09:59:33;;;;;;;4.30;3.30;;;;;;;29.80;35.65;101429.56;5033118;28;20040;-77
2022/08/25 10:02:01;;;;;;;9.45;4.20;;;;;;;29.83;35.40;101423.91;5033120;28;20036;-77
2022/08/25 10:04:28;;;;;;;4.97;3.25;;;;;;;30.12;34.37;101419.38;5033749;28;20032;-74
2022/08/25 10:06:54;;;;;;;4.15;3.10;;;;;;;30.32;34.79;101408.41;5033935;28;20084;-74
2022/08/25 10:09:33;;;;;;;3.95;2.90;;;;;;;30.43;33.91;101409.19;5035991;28;20091;-74
2022/08/25 10:12:00;;;;;;;3.55;2.80;;;;;;;30.63;33.94;101412.56;5033907;28;20048;-75
2022/08/25 10:14:37;;;;;;;6.63;3.25;;;;;;;30.89;32.60;101410.00;5033473;28;20026;-75
2022/08/25 10:17:13;;;;;;;6.03;3.33;;;;;;;31.20;34.42;101402.34;5034340;28;20017;-75
2022/08/25 10:19:39;;;;;;;5.22;3.25;;;;;;;31.44;32.72;101409.78;5033527;28;20009;-75
2022/08/25 10:22:08;;;;;;;6.90;3.35;;;;;;;31.57;30.18;101396.72;5034068;28;20104;-75
2022/08/25 10:24:34;;;;;;;3.65;3.10;;;;;;;31.48;31.50;101393.13;5034145;28;20546;-75
2022/08/25 10:27:35;;;;;;;4.78;3.30;;;;;;;31.51;33.53;101399.19;5033255;28;20373;-75
2022/08/25 10:30:23;;;;;;;5.72;3.25;;;;;;;31.40;34.26;101397.63;5033288;28;20068;-75
2022/08/25 10:33:08;;;;;;;6.50;3.28;;;;;;;31.10;32.61;101390.78;4984815;28;20071;-75
2022/08/25 10:35:52;;;;;;;4.32;3.15;;;;;;;30.91;33.81;101389.16;5032382;28;20465;-80
2022/08/25 10:38:27;;;;;;;6.80;2.97;;;;;;;30.79;32.44;101369.69;5033434;28;20036;-75
2022/08/25 10:41:02;;;;;;;4.43;3.20;;;;;;;30.78;32.47;101386.84;5020548;28;20481;-75
2022/08/25 10:43:39;;;;;;;5.05;3.10;;;;;;;30.69;32.80;101382.38;5032493;28;20095;-74
2022/08/25 10:46:16;;;;;;;5.22;3.20;;;;;;;30.72;33.47;101373.97;5032894;28;20041;-75
2022/08/25 10:48:59;;;;;;;7.68;3.10;;;;;;;30.74;32.86;101372.84;5033501;28;20121;-75
2022/08/25 10:51:47;;;;;;;7.88;3.72;;;;;;;30.79;34.61;101375.94;5033510;28;20036;-75
2022/08/25 10:54:24;;;;;;;4.05;3.55;;;;;;;30.90;34.11;101365.91;5032745;28;20056;-75
2022/08/25 10:57:16;;;;;;;5.15;3.67;;;;;;;30.89;34.50;101367.75;5033524;28;20021;-75
2022/08/25 10:59:59;;;;;;;6.43;3.78;;;;;;;31.05;33.81;101360.81;5030934;28;20393;-75
2022/08/25 11:02:52;;;;;;;5.05;3.75;;;;;;;31.20;35.22;101356.56;5033043;28;20097;-75
2022/08/25 11:05:23;;;;;;;;;;;;;;;31.42;35.01;101364.13;5032906;28;20064;-75
2022/08/25 11:07:56;;;;;;;5.82;3.38;;;;;;;31.77;33.51;101362.28;5030756;28;20312;-74
2022/08/25 11:10:26;;;;;;;6.25;3.70;;;;;;;31.82;32.67;101349.16;5032525;28;20035;-75
2022/08/25 11:12:56;;;;;;;5.85;3.85;;;;;;;31.97;33.37;101351.25;5032612;28;20029;-74
2022/08/25 11:15:29;;;;;;;7.53;3.78;;;;;;;32.08;34.04;101353.63;5034916;28;20052;-76
2022/08/25 11:18:00;;;;;;;10.55;4.03;;;;;;;32.15;31.36;101343.91;5037056;28;20095;-75
2022/08/25 11:21:04;;;;;;;8.73;3.75;;;;;;;32.34;33.35;101335.50;5033156;28;20040;-75
2022/08/25 11:23:45;;;;;;;5.22;3.45;;;;;;;32.37;33.22;101329.78;5032681;28;20108;-75
2022/08/25 11:26:14;;;;;;;4.32;3.53;;;;;;;32.41;31.81;101328.44;5032332;28;20112;-75
2022/08/25 11:29:09;;;;;;;5.20;3.30;;;;;;;32.43;32.90;101330.97;5031631;28;20034;-75
2022/08/25 11:31:38;;;;;;;5.03;3.42;;;;;;;32.46;30.91;101322.56;5033536;28;20025;-76
2022/08/25 11:34:07;;;;;;;6.55;3.40;;;;;;;32.69;31.07;101320.03;5032286;28;20018;-76
2022/08/25 11:36:39;;;;;;;5.20;3.75;;;;;;;32.90;30.81;101321.34;5038481;28;20418;-76
2022/08/25 11:39:07;;;;;;;5.10;3.47;;;;;;;33.07;31.64;101323.06;5033918;28;20029;-76